Time;durP1;ratioP1;P1;durP2;ratioP2;P2;SDS_P1;SDS_P2;PMS_P1;PMS_P2;Temp;Humidity;BMP_temperature;BMP_pressure;BME280_temperature;BME280_humidity;BME280_pressure;Samples;Min_cycle;Max_cycle;Signal;HPM_P1;HPM_P2
2022/11/27 00:02:16;;;;;;;22.48;8.20;;;6.10;99.90;;;;;;7370648;19;20013;-46
2022/11/27 00:04:42;;;;;;;18.90;8.25;;;6.10;99.90;;;;;;7374042;19;20041;-44
2022/11/27 00:07:08;;;;;;;18.42;7.95;;;6.10;99.90;;;;;;7373014;19;20592;-47
2022/11/27 00:09:34;;;;;;;16.15;7.60;;;6.10;99.90;;;;;;7374938;19;20240;-45
2022/11/27 00:12:03;;;;;;;22.08;9.65;;;6.00;99.90;;;;;;7370131;19;20496;-46
2022/11/27 00:14:29;;;;;;;15.82;7.50;;;6.00;99.90;;;;;;7366844;19;20038;-44
2022/11/27 00:16:56;;;;;;;15.52;8.10;;;6.00;99.90;;;;;;7376489;19;20019;-44
2022/11/27 00:19:23;;;;;;;19.77;7.40;;;6.00;99.90;;;;;;7376309;19;20029;-46
2022/11/27 00:21:49;;;;;;;21.10;8.13;;;5.90;99.90;;;;;;7367257;19;20018;-44
2022/11/27 00:24:15;;;;;;;22.30;8.73;;;5.90;99.90;;;;;;7370789;19;20022;-45
2022/11/27 00:26:41;;;;;;;18.33;8.40;;;5.90;99.90;;;;;;7368799;19;20498;-44
2022/11/27 00:29:08;;;;;;;17.55;7.82;;;5.90;99.90;;;;;;7369777;19;20022;-44
2022/11/27 00:31:36;;;;;;;23.73;8.98;;;5.90;99.90;;;;;;7365609;19;20436;-45
2022/11/27 00:34:04;;;;;;;20.92;7.85;;;5.90;99.90;;;;;;7374906;19;20026;-45
2022/11/27 00:36:32;;;;;;;16.80;7.50;;;5.90;99.90;;;;;;7374575;19;20047;-44
2022/11/27 00:38:59;;;;;;;19.35;8.95;;;5.80;99.90;;;;;;7377122;19;20025;-47
2022/11/27 00:41:28;;;;;;;18.73;8.50;;;5.90;99.90;;;;;;7377068;19;20342;-45
2022/11/27 00:43:54;;;;;;;18.50;7.50;;;5.80;99.90;;;;;;7374345;19;20392;-44
2022/11/27 00:46:23;;;;;;;20.42;8.20;;;5.80;99.90;;;;;;7369591;19;20437;-46
2022/11/27 00:48:50;;;;;;;17.27;7.85;;;5.80;99.90;;;;;;7369917;19;20418;-44
2022/11/27 00:51:21;;;;;;;14.48;6.93;;;5.90;99.90;;;;;;7370503;19;20022;-45
2022/11/27 00:53:47;;;;;;;14.68;7.40;;;5.80;99.90;;;;;;7371994;19;20033;-45
2022/11/27 00:56:19;;;;;;;14.98;7.57;;;5.80;99.90;;;;;;7372171;19;20026;-44
2022/11/27 00:58:45;;;;;;;;;;;5.70;99.90;;;;;;7371443;19;20015;-44
2022/11/27 01:01:22;;;;;;;19.65;8.57;;;5.80;99.90;;;;;;7375766;19;19929;-44
2022/11/27 01:03:48;;;;;;;17.30;7.10;;;5.70;99.90;;;;;;7372435;19;20469;-45
2022/11/27 01:06:16;;;;;;;13.80;6.75;;;5.70;99.90;;;;;;7373998;19;20640;-46
2022/11/27 01:08:42;;;;;;;22.70;7.68;;;5.80;99.90;;;;;;7376113;19;20565;-44
2022/11/27 01:11:18;;;;;;;16.27;8.13;;;5.70;99.90;;;;;;7373706;19;20014;-44
2022/11/27 01:13:45;;;;;;;11.98;6.90;;;5.60;99.90;;;;;;7374178;19;20018;-44
2022/11/27 01:16:14;;;;;;;16.95;7.80;;;5.70;99.90;;;;;;7370570;19;20382;-44
2022/11/27 01:18:42;;;;;;;13.30;7.82;;;5.70;99.90;;;;;;7376399;19;20588;-44
2022/11/27 01:21:09;;;;;;;14.43;6.70;;;5.60;99.90;;;;;;7374237;19;20014;-45
2022/11/27 01:23:35;;;;;;;16.88;8.10;;;5.70;99.90;;;;;;7369328;19;20014;-46
2022/11/27 01:26:04;;;;;;;10.30;6.68;;;5.60;99.90;;;;;;7371416;19;20022;-45
2022/11/27 01:28:30;;;;;;;12.45;6.72;;;5.60;99.90;;;;;;7372261;19;20374;-45
2022/11/27 01:30:56;;;;;;;15.43;6.18;;;5.60;99.90;;;;;;7375458;19;20023;-44
2022/11/27 01:33:23;;;;;;;15.70;8.25;;;5.60;99.90;;;;;;7374226;19;20018;-44
2022/11/27 01:35:57;;;;;;;18.63;7.85;;;5.70;99.90;;;;;;7370807;19;20025;-45
2022/11/27 01:38:24;;;;;;;12.77;6.70;;;5.60;99.90;;;;;;7367457;19;20034;-45
2022/11/27 01:40:58;;;;;;;18.63;7.78;;;5.60;99.90;;;;;;7376313;19;20600;-44
2022/11/27 01:43:47;;;;;;;13.23;6.97;;;5.70;99.90;;;;;;7373767;19;20018;-45
2022/11/27 01:46:47;;;;;;;14.68;7.75;;;5.70;99.90;;;;;;7372892;19;20019;-46
2022/11/27 01:49:34;;;;;;;14.77;7.50;;;5.60;99.90;;;;;;7373574;19;20085;-46
2022/11/27 01:52:34;;;;;;;12.23;6.80;;;5.50;99.90;;;;;;7375113;19;20033;-48
2022/11/27 01:55:09;;;;;;;19.20;7.40;;;5.50;99.90;;;;;;7372163;19;20014;-49
2022/11/27 01:57:44;;;;;;;12.88;7.28;;;5.40;99.90;;;;;;7378185;19;20018;-46
2022/11/27 02:00:13;;;;;;;12.23;6.72;;;5.40;99.90;;;;;;7377570;19;20450;-49
2022/11/27 02:02:42;;;;;;;19.92;8.80;;;5.40;99.90;;;;;;7381994;19;20018;-49
2022/11/27 02:05:10;;;;;;;12.65;6.97;;;5.40;99.90;;;;;;7378785;19;20041;-48
2022/11/27 02:07:36;;;;;;;17.23;7.15;;;5.40;99.90;;;;;;7379482;19;20359;-50
2022/11/27 02:10:04;;;;;;;15.32;7.32;;;5.30;99.90;;;;;;7376502;19;20019;-46
2022/11/27 02:12:48;;;;;;;17.55;7.80;;;5.40;99.90;;;;;;7377779;19;20025;-48
2022/11/27 02:15:35;;;;;;;17.60;7.38;;;5.40;99.90;;;;;;7378599;19;20530;-50
2022/11/27 02:18:13;;;;;;;13.40;6.78;;;5.40;99.90;;;;;;7376996;19;20405;-49
2022/11/27 02:21:04;;;;;;;17.95;7.63;;;5.40;99.90;;;;;;7378118;19;20018;-50
2022/11/27 02:24:07;;;;;;;15.70;8.43;;;5.30;99.90;;;;;;7380458;19;20102;-50
2022/11/27 02:27:07;;;;;;;18.73;8.65;;;5.40;99.90;;;;;;7373663;19;20021;-48
2022/11/27 02:29:34;;;;;;;14.90;6.95;;;5.40;99.90;;;;;;7379059;19;20355;-49
2022/11/27 02:32:29;;;;;;;14.93;7.50;;;5.40;99.90;;;;;;7369810;19;20018;-51
2022/11/27 02:35:17;;;;;;;13.77;6.60;;;5.30;99.90;;;;;;7376323;19;20021;-49
2022/11/27 02:37:52;;;;;;;13.38;7.28;;;5.30;99.90;;;;;;7378848;19;20010;-47
2022/11/27 02:40:40;;;;;;;20.95;7.70;;;5.30;99.90;;;;;;7373758;19;20021;-50
2022/11/27 02:43:31;;;;;;;11.88;6.93;;;5.20;99.90;;;;;;7377200;19;20018;-49
2022/11/27 02:45:59;;;;;;;14.13;6.97;;;5.20;99.90;;;;;;7379105;19;20047;-47
2022/11/27 02:48:34;;;;;;;11.10;7.25;;;5.20;99.90;;;;;;7375070;19;20050;-48
2022/11/27 02:51:04;;;;;;;17.30;7.57;;;5.20;99.90;;;;;;7377475;19;20030;-48
2022/11/27 02:53:37;;;;;;;13.48;7.30;;;5.20;99.90;;;;;;7374290;19;20018;-48
2022/11/27 02:56:13;;;;;;;15.55;7.82;;;5.20;99.90;;;;;;7374322;19;20031;-49
2022/11/27 02:58:40;;;;;;;13.77;7.65;;;5.20;99.90;;;;;;7377256;19;20014;-48
2022/11/27 03:01:08;;;;;;;15.35;7.13;;;5.20;99.90;;;;;;7376947;19;20022;-49
2022/11/27 03:03:45;;;;;;;14.85;7.25;;;5.30;99.90;;;;;;7378625;19;20132;-46
2022/11/27 03:06:16;;;;;;;17.75;8.25;;;5.30;99.90;;;;;;7375540;19;20019;-49
2022/11/27 03:09:05;;;;;;;16.45;7.35;;;5.30;99.90;;;;;;7376481;19;20033;-47
2022/11/27 03:11:31;;;;;;;14.90;7.45;;;5.40;99.90;;;;;;7371119;19;20039;-49
2022/11/27 03:14:05;;;;;;;16.08;7.40;;;5.40;99.90;;;;;;7375849;19;20509;-46
2022/11/27 03:16:37;;;;;;;12.32;6.75;;;5.40;99.90;;;;;;7373040;19;20011;-48
2022/11/27 03:19:21;;;;;;;16.25;7.15;;;5.50;99.90;;;;;;7378157;19;20470;-49
2022/11/27 03:21:58;;;;;;;12.10;6.78;;;5.50;99.90;;;;;;7375471;19;20493;-49
2022/11/27 03:24:26;;;;;;;14.43;7.93;;;5.50;99.90;;;;;;7371919;19;20022;-47
2022/11/27 03:26:52;;;;;;;17.90;7.00;;;5.50;99.90;;;;;;7375882;19;20030;-45
2022/11/27 03:29:27;;;;;;;11.15;6.53;;;5.50;99.90;;;;;;7371449;19;20014;-46
2022/11/27 03:31:55;;;;;;;14.77;6.40;;;5.50;99.90;;;;;;7376945;19;20071;-49
2022/11/27 03:34:21;;;;;;;12.90;6.78;;;5.50;99.90;;;;;;7374063;19;20018;-48
2022/11/27 03:36:48;;;;;;;13.85;6.68;;;5.50;99.90;;;;;;7375358;19;20411;-50
2022/11/27 03:39:15;;;;;;;11.70;6.30;;;5.40;99.90;;;;;;7375584;19;20020;-47
2022/11/27 03:41:52;;;;;;;11.43;6.25;;;5.40;99.90;;;;;;7373783;19;20545;-49
2022/11/27 03:44:33;;;;;;;12.98;6.53;;;5.40;99.90;;;;;;7372064;19;20022;-45
2022/11/27 03:47:11;;;;;;;17.83;5.57;;;5.40;99.90;;;;;;7375185;19;20014;-43
2022/11/27 03:50:05;;;;;;;15.20;5.78;;;5.50;99.90;;;;;;7376476;19;20033;-44
2022/11/27 03:52:50;;;;;;;12.35;6.78;;;5.40;99.90;;;;;;7369143;19;20015;-48
2022/11/27 03:55:28;;;;;;;10.55;6.03;;;5.40;99.90;;;;;;7367432;19;20491;-46
2022/11/27 03:57:57;;;;;;;11.73;5.05;;;5.40;99.90;;;;;;7368151;19;20018;-44
2022/11/27 04:00:24;;;;;;;15.85;6.18;;;5.40;99.90;;;;;;7367696;19;20011;-46
2022/11/27 04:02:52;;;;;;;12.95;6.43;;;5.40;99.90;;;;;;7369323;19;20082;-48
2022/11/27 04:05:19;;;;;;;11.55;5.68;;;5.40;99.90;;;;;;7365563;19;20529;-46
2022/11/27 04:07:46;;;;;;;14.15;6.80;;;5.50;99.90;;;;;;7367504;19;20123;-46
2022/11/27 04:10:13;;;;;;;9.50;5.45;;;5.50;99.90;;;;;;7368704;19;20025;-48
2022/11/27 04:12:41;;;;;;;16.58;6.22;;;5.50;99.90;;;;;;7369083;19;20022;-46
2022/11/27 04:15:07;;;;;;;9.30;5.55;;;5.50;99.90;;;;;;7368763;19;20093;-47
2022/11/27 04:17:34;;;;;;;8.27;4.85;;;5.50;99.90;;;;;;7368030;19;20015;-44
2022/11/27 04:20:00;;;;;;;13.15;6.53;;;5.50;99.90;;;;;;7368231;19;20022;-44
2022/11/27 04:22:26;;;;;;;10.43;5.57;;;5.50;99.90;;;;;;7365936;19;21473;-44
2022/11/27 04:24:52;;;;;;;13.93;5.90;;;5.50;99.90;;;;;;7364051;19;20537;-45
2022/11/27 04:27:18;;;;;;;12.05;6.13;;;5.50;99.90;;;;;;7370799;19;20019;-44
2022/11/27 04:29:45;;;;;;;11.63;4.68;;;5.50;99.90;;;;;;7368267;19;20680;-45
2022/11/27 04:32:11;;;;;;;10.60;4.78;;;5.50;99.90;;;;;;7369458;19;20847;-44
2022/11/27 04:34:37;;;;;;;12.25;5.47;;;5.50;99.90;;;;;;7368705;19;20041;-45
2022/11/27 04:37:03;;;;;;;14.65;5.30;;;5.60;99.90;;;;;;7371086;19;20126;-44
2022/11/27 04:39:30;;;;;;;13.55;5.43;;;5.60;99.90;;;;;;7364725;19;20470;-45
2022/11/27 04:41:56;;;;;;;11.25;5.82;;;5.60;99.90;;;;;;7367879;19;20500;-46
2022/11/27 04:44:22;;;;;;;9.95;5.15;;;5.60;99.90;;;;;;7365134;19;20126;-46
2022/11/27 04:46:49;;;;;;;12.38;5.32;;;5.60;99.90;;;;;;7365968;19;20383;-44
2022/11/27 04:49:15;;;;;;;11.68;4.75;;;5.60;99.90;;;;;;7366337;19;20019;-46
2022/11/27 04:51:41;;;;;;;12.48;4.88;;;5.60;99.90;;;;;;7365194;19;20074;-44
2022/11/27 04:54:07;;;;;;;11.45;5.20;;;5.60;99.90;;;;;;7365099;19;20010;-46
2022/11/27 04:56:33;;;;;;;8.48;5.13;;;5.60;99.90;;;;;;7366252;19;20032;-45
2022/11/27 04:59:00;;;;;;;14.77;5.60;;;5.50;99.90;;;;;;7369237;19;20018;-47
2022/11/27 05:01:26;;;;;;;11.77;4.80;;;5.60;99.90;;;;;;7363496;19;20023;-45
2022/11/27 05:03:52;;;;;;;11.18;4.63;;;5.60;99.90;;;;;;7363959;19;20022;-45
2022/11/27 05:06:21;;;;;;;12.68;6.03;;;5.60;99.90;;;;;;7364871;19;20022;-48
2022/11/27 05:08:48;;;;;;;12.88;5.55;;;5.50;99.90;;;;;;7364780;19;20045;-44
2022/11/27 05:11:15;;;;;;;12.93;4.95;;;5.60;99.90;;;;;;7366612;19;20029;-44
2022/11/27 05:13:43;;;;;;;11.32;4.78;;;5.60;99.90;;;;;;7368298;19;20022;-48
2022/11/27 05:16:09;;;;;;;12.70;5.13;;;5.60;99.90;;;;;;7363681;19;20030;-44
2022/11/27 05:18:35;;;;;;;9.90;5.03;;;5.50;99.90;;;;;;7367382;19;20406;-44
2022/11/27 05:21:05;;;;;;;13.40;4.68;;;5.60;99.90;;;;;;7369276;19;20368;-44
2022/11/27 05:23:32;;;;;;;10.80;5.25;;;5.60;99.90;;;;;;7365408;19;20018;-45
2022/11/27 05:25:59;;;;;;;12.02;4.55;;;5.60;99.90;;;;;;7363372;19;20542;-50
2022/11/27 05:28:25;;;;;;;10.65;4.97;;;5.50;99.90;;;;;;7362349;19;20022;-46
2022/11/27 05:30:51;;;;;;;13.10;5.00;;;5.50;99.90;;;;;;7362126;19;20399;-50
2022/11/27 05:33:18;;;;;;;11.35;5.15;;;5.50;99.90;;;;;;7356764;19;20018;-45
2022/11/27 05:35:45;;;;;;;12.07;4.93;;;5.50;99.90;;;;;;7361035;19;20015;-47
2022/11/27 05:38:12;;;;;;;14.02;5.40;;;5.50;99.90;;;;;;7361281;19;20042;-49
2022/11/27 05:40:39;;;;;;;13.20;6.53;;;5.50;99.90;;;;;;7361954;19;20018;-48
2022/11/27 05:43:05;;;;;;;12.85;5.57;;;5.50;99.90;;;;;;7364096;19;20497;-50
2022/11/27 05:45:32;;;;;;;10.02;4.30;;;5.50;99.90;;;;;;7359431;19;20470;-50
2022/11/27 05:47:58;;;;;;;10.50;4.60;;;5.50;99.90;;;;;;7362076;19;20025;-46
2022/11/27 05:50:24;;;;;;;9.10;4.53;;;5.50;99.90;;;;;;7356643;19;20022;-50
2022/11/27 05:52:50;;;;;;;9.93;4.80;;;5.40;99.90;;;;;;7362069;19;20034;-48
2022/11/27 05:55:17;;;;;;;10.98;4.93;;;5.40;99.90;;;;;;7360330;19;20558;-46
2022/11/27 05:57:43;;;;;;;11.50;4.55;;;5.50;99.90;;;;;;7357906;19;20489;-48
2022/11/27 06:00:10;;;;;;;10.18;5.10;;;5.50;99.90;;;;;;7361478;19;20026;-47
2022/11/27 06:02:36;;;;;;;8.82;4.50;;;5.40;99.90;;;;;;7359134;19;20023;-47
2022/11/27 06:05:03;;;;;;;11.52;4.82;;;5.40;99.90;;;;;;7357925;19;20401;-46
2022/11/27 06:07:30;;;;;;;11.80;4.90;;;5.50;99.90;;;;;;7359309;19;20507;-50
2022/11/27 06:09:56;;;;;;;10.93;4.20;;;5.50;99.90;;;;;;7362058;19;20098;-50
2022/11/27 06:12:22;;;;;;;15.18;4.90;;;5.50;99.90;;;;;;7361647;19;20560;-49
2022/11/27 06:14:49;;;;;;;11.73;4.90;;;5.50;99.90;;;;;;7361164;19;20363;-45
2022/11/27 06:17:15;;;;;;;9.95;4.47;;;5.50;99.90;;;;;;7359286;19;20026;-47
2022/11/27 06:19:42;;;;;;;13.57;5.38;;;5.50;99.90;;;;;;7356068;19;20511;-48
2022/11/27 06:22:08;;;;;;;10.07;4.28;;;5.50;99.90;;;;;;7363594;19;20502;-45
2022/11/27 06:24:34;;;;;;;14.65;4.88;;;5.50;99.90;;;;;;7357531;19;20026;-45
2022/11/27 06:27:00;;;;;;;13.45;5.10;;;5.50;99.90;;;;;;7362844;19;20086;-45
2022/11/27 06:29:27;;;;;;;12.25;5.00;;;5.50;99.90;;;;;;7358963;19;20022;-45
2022/11/27 06:31:53;;;;;;;11.45;4.43;;;5.50;99.90;;;;;;7362143;19;20030;-46
2022/11/27 06:34:19;;;;;;;11.05;5.55;;;5.50;99.90;;;;;;7359656;19;20022;-46
2022/11/27 06:36:45;;;;;;;13.13;5.82;;;5.50;99.90;;;;;;7356593;19;20101;-51
2022/11/27 06:39:11;;;;;;;11.90;5.38;;;5.50;99.90;;;;;;7362558;19;20022;-45
2022/11/27 06:41:38;;;;;;;10.40;5.40;;;5.50;99.90;;;;;;7359115;19;20477;-45
2022/11/27 06:44:05;;;;;;;8.85;4.93;;;5.50;99.90;;;;;;7369692;19;20042;-45
2022/11/27 06:46:31;;;;;;;11.25;4.63;;;5.50;99.90;;;;;;7368161;19;20027;-45
2022/11/27 06:48:58;;;;;;;14.60;5.30;;;5.50;99.90;;;;;;7369161;19;20018;-46
2022/11/27 06:51:27;;;;;;;12.63;5.22;;;5.50;99.90;;;;;;7368412;19;20533;-46
2022/11/27 06:53:53;;;;;;;12.48;5.05;;;5.50;99.90;;;;;;7371550;19;20481;-44
2022/11/27 06:56:22;;;;;;;10.77;5.10;;;5.50;99.90;;;;;;7364283;19;20023;-45
2022/11/27 06:58:54;;;;;;;9.35;4.90;;;5.50;99.90;;;;;;7372064;19;20593;-44
2022/11/27 07:01:22;;;;;;;9.15;5.10;;;5.50;99.90;;;;;;7365170;19;20029;-44
2022/11/27 07:03:48;;;;;;;8.23;5.18;;;5.50;99.90;;;;;;7366697;19;20018;-46
2022/11/27 07:06:18;;;;;;;9.07;5.25;;;5.50;99.90;;;;;;7364845;19;20026;-45
2022/11/27 07:08:45;;;;;;;15.20;5.20;;;5.50;99.90;;;;;;7367155;19;20014;-46
2022/11/27 07:11:15;;;;;;;12.27;5.10;;;5.50;99.90;;;;;;7367975;19;20026;-49
2022/11/27 07:13:41;;;;;;;9.18;5.55;;;5.50;99.90;;;;;;7368462;19;20541;-48
2022/11/27 07:16:09;;;;;;;13.50;5.78;;;5.50;99.90;;;;;;7364247;19;20440;-47
2022/11/27 07:18:44;;;;;;;9.82;5.13;;;5.50;99.90;;;;;;7359171;19;20018;-45
2022/11/27 07:21:11;;;;;;;11.73;5.65;;;5.50;99.90;;;;;;7363297;19;20026;-46
2022/11/27 07:23:37;;;;;;;10.95;5.90;;;5.60;99.90;;;;;;7362126;19;20022;-46
2022/11/27 07:26:09;;;;;;;11.75;5.90;;;5.50;99.90;;;;;;7364649;19;20151;-45
2022/11/27 07:28:35;;;;;;;12.82;5.78;;;5.60;99.90;;;;;;7364288;19;20473;-45
2022/11/27 07:31:02;;;;;;;8.65;5.45;;;5.60;99.90;;;;;;7365338;19;20514;-48
2022/11/27 07:33:28;;;;;;;9.48;5.05;;;5.60;99.90;;;;;;7360690;19;20378;-48
2022/11/27 07:36:06;;;;;;;15.38;6.43;;;5.60;99.90;;;;;;7366312;19;20453;-46
2022/11/27 07:38:32;;;;;;;11.98;6.20;;;5.60;99.90;;;;;;7357614;19;20019;-45
2022/11/27 07:41:02;;;;;;;13.70;6.40;;;5.60;99.90;;;;;;7362283;19;20657;-48
2022/11/27 07:43:30;;;;;;;10.70;5.63;;;5.60;99.90;;;;;;7365204;19;20051;-45
2022/11/27 07:45:57;;;;;;;13.25;6.75;;;5.60;99.90;;;;;;7369096;19;20025;-46
2022/11/27 07:48:24;;;;;;;12.02;5.35;;;5.60;99.90;;;;;;7365160;19;20586;-47
2022/11/27 07:50:50;;;;;;;11.77;6.28;;;5.60;99.90;;;;;;7364552;19;20856;-44
2022/11/27 07:53:16;;;;;;;11.32;5.60;;;5.60;99.90;;;;;;7353504;19;20395;-48
2022/11/27 07:55:42;;;;;;;14.00;6.53;;;5.70;99.90;;;;;;7360526;19;20105;-45
2022/11/27 07:58:09;;;;;;;13.52;5.47;;;5.70;99.90;;;;;;7362005;19;20023;-49
2022/11/27 08:00:36;;;;;;;14.85;6.75;;;5.70;99.90;;;;;;7354967;19;20034;-44
2022/11/27 08:03:02;;;;;;;13.10;6.07;;;5.70;99.90;;;;;;7362163;19;20477;-46
2022/11/27 08:05:29;;;;;;;11.35;6.22;;;5.80;99.90;;;;;;7356980;19;20019;-47
2022/11/27 08:08:00;;;;;;;10.85;6.63;;;5.80;99.90;;;;;;7362298;19;20019;-44
2022/11/27 08:10:26;;;;;;;17.52;7.10;;;5.80;99.90;;;;;;7362189;19;20030;-45
2022/11/27 08:12:53;;;;;;;13.73;6.57;;;5.80;99.90;;;;;;7362530;19;20022;-46
2022/11/27 08:15:19;;;;;;;11.18;6.13;;;5.90;99.90;;;;;;7362656;19;20390;-47
2022/11/27 08:17:45;;;;;;;12.75;6.15;;;5.90;99.90;;;;;;7354559;19;20026;-45
2022/11/27 08:20:11;;;;;;;12.68;6.25;;;5.90;99.90;;;;;;7362407;19;20459;-49
2022/11/27 08:22:38;;;;;;;12.13;5.90;;;5.90;99.90;;;;;;7366797;19;20014;-45
2022/11/27 08:25:04;;;;;;;13.68;6.85;;;5.90;99.90;;;;;;7358672;19;20698;-48
2022/11/27 08:27:32;;;;;;;11.90;6.32;;;6.00;99.90;;;;;;7365339;19;20477;-46
2022/11/27 08:29:59;;;;;;;13.70;6.15;;;6.00;99.90;;;;;;7361300;19;20053;-46
2022/11/27 08:32:25;;;;;;;11.98;5.90;;;6.00;99.90;;;;;;7359047;19;20807;-50
2022/11/27 08:34:51;;;;;;;12.98;7.28;;;6.00;99.90;;;;;;7352961;19;20017;-49
2022/11/27 08:37:17;;;;;;;14.20;6.82;;;6.00;99.90;;;;;;7361341;19;20022;-46
2022/11/27 08:39:44;;;;;;;11.93;6.50;;;6.10;99.90;;;;;;7367222;19;20022;-48
2022/11/27 08:42:10;;;;;;;12.52;6.20;;;6.10;99.90;;;;;;7364186;19;20015;-49
2022/11/27 08:44:37;;;;;;;13.90;6.80;;;6.10;99.90;;;;;;7361836;19;20014;-48
2022/11/27 08:47:04;;;;;;;12.85;6.63;;;6.10;99.90;;;;;;7363203;19;20063;-49
2022/11/27 08:49:30;;;;;;;15.05;6.85;;;6.10;99.90;;;;;;7359889;19;20068;-49
2022/11/27 08:51:56;;;;;;;12.38;6.25;;;6.10;99.90;;;;;;7365546;19;20022;-45
2022/11/27 08:54:22;;;;;;;11.52;6.47;;;6.20;99.90;;;;;;7361399;19;20039;-47
2022/11/27 08:56:50;;;;;;;9.73;6.45;;;6.20;99.90;;;;;;7363124;19;20039;-44
2022/11/27 08:59:17;;;;;;;16.52;7.70;;;6.20;99.90;;;;;;7358323;19;20486;-49
2022/11/27 09:01:43;;;;;;;14.82;7.00;;;6.20;99.90;;;;;;7360957;19;20392;-47
2022/11/27 09:04:09;;;;;;;11.05;6.82;;;6.20;99.90;;;;;;7363977;19;20113;-47
2022/11/27 09:06:36;;;;;;;15.63;6.88;;;6.20;99.90;;;;;;7358215;19;20061;-47
2022/11/27 09:09:04;;;;;;;16.02;7.82;;;6.20;99.90;;;;;;7358057;19;20022;-50
2022/11/27 09:11:32;;;;;;;14.10;7.95;;;6.20;99.90;;;;;;7359658;19;20356;-46
2022/11/27 09:13:59;;;;;;;16.85;6.75;;;6.20;99.90;;;;;;7359130;19;20026;-46
2022/11/27 09:16:26;;;;;;;11.77;6.22;;;6.20;99.90;;;;;;7361222;19;20082;-46
2022/11/27 09:18:53;;;;;;;12.32;7.35;;;6.20;99.90;;;;;;7359835;19;20018;-48
2022/11/27 09:21:21;;;;;;;14.38;8.02;;;6.20;99.90;;;;;;7354433;19;20018;-44
2022/11/27 09:23:51;;;;;;;19.35;9.82;;;6.20;99.90;;;;;;7360241;19;20054;-49
2022/11/27 09:26:17;;;;;;;13.82;7.45;;;6.20;99.90;;;;;;7357702;19;20576;-49
2022/11/27 09:28:44;;;;;;;15.70;6.78;;;6.20;99.90;;;;;;7360748;19;20058;-50
2022/11/27 09:31:13;;;;;;;14.23;9.65;;;6.20;99.90;;;;;;7361005;19;20018;-45
2022/11/27 09:33:40;;;;;;;16.02;7.80;;;6.20;99.90;;;;;;7362131;19;20126;-46
2022/11/27 09:36:16;;;;;;;15.35;8.98;;;6.20;99.90;;;;;;7357955;19;20490;-46
2022/11/27 09:38:43;;;;;;;11.75;7.55;;;6.20;99.90;;;;;;7365932;19;20018;-46
2022/11/27 09:41:28;;;;;;;15.52;6.93;;;6.20;99.90;;;;;;7364509;19;20035;-47
2022/11/27 09:43:59;;;;;;;15.60;6.80;;;6.20;99.90;;;;;;7362426;19;20029;-47
2022/11/27 09:46:36;;;;;;;;;;;6.20;99.90;;;;;;7365444;19;20477;-48
2022/11/27 09:49:07;;;;;;;10.60;6.88;;;6.20;99.90;;;;;;7364725;19;20357;-45
2022/11/27 09:51:52;;;;;;;16.00;8.80;;;6.20;99.90;;;;;;7365540;19;21252;-47
2022/11/27 09:54:31;;;;;;;14.65;6.93;;;6.20;99.90;;;;;;7367262;19;20379;-45
2022/11/27 09:56:58;;;;;;;12.55;7.55;;;6.20;99.90;;;;;;7359041;19;20686;-45
2022/11/27 09:59:51;;;;;;;13.13;7.43;;;6.20;99.90;;;;;;7365748;19;20021;-49
2022/11/27 10:02:30;;;;;;;15.85;8.93;;;6.20;99.90;;;;;;7361075;19;20037;-48
2022/11/27 10:04:58;;;;;;;15.27;8.23;;;6.10;99.90;;;;;;7363434;19;20026;-45
2022/11/27 10:08:02;;;;;;;14.50;7.45;;;6.10;99.90;;;;;;7362030;19;20351;-47
2022/11/27 10:10:40;;;;;;;15.98;7.78;;;6.20;99.90;;;;;;7360701;19;20711;-43
2022/11/27 10:13:18;;;;;;;13.98;8.32;;;6.10;99.90;;;;;;7361403;19;20026;-46
2022/11/27 10:16:04;;;;;;;15.13;7.60;;;6.20;99.90;;;;;;7365714;19;20018;-49
2022/11/27 10:18:46;;;;;;;11.27;7.35;;;6.10;99.90;;;;;;7369756;19;20497;-45
2022/11/27 10:21:42;;;;;;;14.10;7.82;;;6.20;99.90;;;;;;7370682;19;20026;-44
2022/11/27 10:24:22;;;;;;;14.25;7.93;;;6.20;99.90;;;;;;7366402;19;20011;-44
2022/11/27 10:26:53;;;;;;;12.50;7.05;;;6.20;99.90;;;;;;7366519;19;20011;-45
2022/11/27 10:29:40;;;;;;;14.18;7.55;;;6.20;99.90;;;;;;7369926;19;20469;-45
2022/11/27 10:32:23;;;;;;;14.50;8.55;;;6.20;99.90;;;;;;7371987;19;20497;-45
2022/11/27 10:34:57;;;;;;;13.95;7.57;;;6.20;99.90;;;;;;7360791;19;20019;-46
2022/11/27 10:37:38;;;;;;;12.57;7.40;;;6.30;99.90;;;;;;7369037;19;20361;-46
2022/11/27 10:40:38;;;;;;;13.45;7.60;;;6.20;99.90;;;;;;7369642;19;20019;-48
2022/11/27 10:43:23;;;;;;;14.38;7.35;;;6.30;99.90;;;;;;7364777;19;20552;-45
2022/11/27 10:46:18;;;;;;;16.75;7.88;;;6.30;99.90;;;;;;7369540;19;20113;-45
2022/11/27 10:48:45;;;;;;;14.23;8.00;;;6.30;99.90;;;;;;7368228;19;20025;-44
2022/11/27 10:51:20;;;;;;;16.10;8.80;;;6.30;99.90;;;;;;7370589;19;20026;-46
2022/11/27 10:53:53;;;;;;;12.75;8.20;;;6.30;99.90;;;;;;7366863;19;20078;-45
2022/11/27 10:56:35;;;;;;;13.32;7.82;;;6.30;99.90;;;;;;7367825;19;20022;-46
2022/11/27 10:59:34;;;;;;;14.93;7.60;;;6.30;99.90;;;;;;7372621;19;20014;-48
2022/11/27 11:02:02;;;;;;;21.00;9.75;;;6.30;99.90;;;;;;7366125;19;20025;-44
2022/11/27 11:04:30;;;;;;;14.23;7.82;;;6.30;99.90;;;;;;7366817;19;20506;-45
2022/11/27 11:06:57;;;;;;;13.40;7.32;;;6.30;99.90;;;;;;7368367;19;20798;-48
2022/11/27 11:09:33;;;;;;;15.48;7.43;;;6.30;99.90;;;;;;7364917;19;20481;-43
2022/11/27 11:12:17;;;;;;;12.98;7.38;;;6.30;99.90;;;;;;7365433;19;20019;-44
2022/11/27 11:14:52;;;;;;;16.48;8.02;;;6.30;99.90;;;;;;7361827;19;20961;-45
2022/11/27 11:17:25;;;;;;;14.05;7.75;;;6.30;99.90;;;;;;7360107;19;20018;-46
2022/11/27 11:19:52;;;;;;;13.27;6.93;;;6.40;99.90;;;;;;7369049;19;20449;-44
2022/11/27 11:22:19;;;;;;;16.02;9.05;;;6.40;99.90;;;;;;7368905;19;20025;-46
2022/11/27 11:24:51;;;;;;;18.02;8.10;;;6.40;99.90;;;;;;7363181;19;20018;-46
2022/11/27 11:27:31;;;;;;;12.13;7.68;;;6.40;99.90;;;;;;7364437;19;20011;-45
2022/11/27 11:30:00;;;;;;;12.50;8.07;;;6.40;99.90;;;;;;7362784;19;20074;-48
2022/11/27 11:32:36;;;;;;;12.70;7.95;;;6.40;99.90;;;;;;7367587;19;20014;-48
2022/11/27 11:35:08;;;;;;;16.25;8.48;;;6.40;99.90;;;;;;7366570;19;20007;-47
2022/11/27 11:37:40;;;;;;;12.50;7.82;;;6.40;99.90;;;;;;7361609;19;20529;-49
2022/11/27 11:40:13;;;;;;;18.65;10.38;;;6.50;99.90;;;;;;7360276;19;20623;-49
2022/11/27 11:43:40;;;;;;;11.52;7.60;;;6.40;99.90;;;;;;7364084;19;20121;-44
2022/11/27 11:46:19;;;;;;;14.80;6.97;;;6.50;99.90;;;;;;7362181;19;20045;-46
2022/11/27 11:48:58;;;;;;;17.00;8.07;;;6.50;99.90;;;;;;7363608;19;20014;-47
2022/11/27 11:51:49;;;;;;;14.15;7.07;;;6.50;99.90;;;;;;7360655;19;20014;-46
2022/11/27 11:54:57;;;;;;;11.77;6.88;;;6.50;99.90;;;;;;7363560;19;21046;-44
2022/11/27 11:57:35;;;;;;;16.38;8.35;;;6.60;99.90;;;;;;7365391;19;21312;-45
2022/11/27 12:00:10;;;;;;;16.30;9.48;;;6.60;99.90;;;;;;7361696;19;20613;-45
2022/11/27 12:02:55;;;;;;;14.23;7.65;;;6.60;99.90;;;;;;7360425;19;20036;-48
2022/11/27 12:06:06;;;;;;;11.88;7.75;;;6.60;99.90;;;;;;7365094;19;20077;-44
2022/11/27 12:08:48;;;;;;;16.67;7.28;;;6.60;99.90;;;;;;7361482;19;20033;-46
2022/11/27 12:11:28;;;;;;;12.35;7.72;;;6.60;99.90;;;;;;7363676;19;20430;-48
2022/11/27 12:14:39;;;;;;;12.77;7.22;;;6.60;99.90;;;;;;7361135;19;20517;-45
2022/11/27 12:17:37;;;;;;;11.57;7.15;;;6.60;99.90;;;;;;7360219;19;20015;-45
2022/11/27 12:20:34;;;;;;;17.42;7.85;;;6.60;99.90;;;;;;7356948;19;20751;-45
2022/11/27 12:23:30;;;;;;;11.82;6.95;;;6.60;99.90;;;;;;7348192;19;20473;-54
2022/11/27 12:26:04;;;;;;;16.25;7.93;;;6.60;99.90;;;;;;7356849;19;20015;-45
2022/11/27 12:28:40;;;;;;;14.00;7.05;;;6.70;99.90;;;;;;7360481;19;20015;-47
2022/11/27 12:31:34;;;;;;;13.65;7.65;;;6.60;99.90;;;;;;7360882;19;20810;-44
2022/11/27 12:34:09;;;;;;;14.63;7.95;;;6.70;99.90;;;;;;7366248;19;20500;-46
2022/11/27 12:36:35;;;;;;;14.35;8.38;;;6.70;99.90;;;;;;7360826;19;20014;-46
2022/11/27 12:39:24;;;;;;;13.73;7.63;;;6.70;99.90;;;;;;7365007;19;20034;-46
2022/11/27 12:42:11;;;;;;;12.82;7.63;;;6.70;99.90;;;;;;7359058;19;20026;-45
2022/11/27 12:44:49;;;;;;;16.10;7.35;;;6.70;99.90;;;;;;7361238;19;20018;-47
2022/11/27 12:47:23;;;;;;;13.82;7.90;;;6.70;99.90;;;;;;7362171;19;20042;-44
2022/11/27 12:50:22;;;;;;;11.43;7.40;;;6.80;99.90;;;;;;7362963;19;20521;-45
2022/11/27 12:53:10;;;;;;;18.33;12.23;;;6.80;99.90;;;;;;7358010;19;20354;-47
2022/11/27 12:55:41;;;;;;;16.15;10.02;;;6.80;99.90;;;;;;7362508;19;20373;-44
2022/11/27 12:58:18;;;;;;;15.65;7.65;;;6.80;99.90;;;;;;7360240;19;20028;-46
2022/11/27 13:00:46;;;;;;;14.15;7.07;;;6.90;99.90;;;;;;7357765;19;20014;-46
2022/11/27 13:03:28;;;;;;;13.45;7.72;;;6.90;99.90;;;;;;7362310;19;20553;-44
2022/11/27 13:06:15;;;;;;;11.38;7.18;;;6.90;99.90;;;;;;7362286;19;20469;-44
2022/11/27 13:08:45;;;;;;;14.73;7.75;;;6.80;99.90;;;;;;7362063;19;20026;-45
2022/11/27 13:11:14;;;;;;;10.40;6.78;;;6.80;99.90;;;;;;7360902;19;20022;-46
2022/11/27 13:13:48;;;;;;;12.23;6.60;;;6.80;99.90;;;;;;7355133;19;20058;-48
2022/11/27 13:16:25;;;;;;;12.25;7.18;;;6.80;99.90;;;;;;7360577;19;20010;-47